Aviation Digital Data Service (ADDS)

Output produced by METARs form (2317 UTC 29 April 2017)
found at http://aviationweather.gov/adds/metars/
 
KPHX 292056Z 2921/3018 29012G20KT P6SM SCT120 
     FM300600 07005KT P6SM SKC